sensor_id;sensor_type;location;lat;lon;timestamp;P1;durP1;ratioP1;P2;durP2;ratioP2
15878;SDS011;61999;51.514;14.614;2023-07-02T00:00:30;1.47;;;1.37;;
15878;SDS011;61999;51.514;14.614;2023-07-02T00:02:59;1.40;;;1.30;;
15878;SDS011;61999;51.514;14.614;2023-07-02T00:05:27;1.60;;;1.50;;
15878;SDS011;61999;51.514;14.614;2023-07-02T00:07:57;1.97;;;1.77;;
15878;SDS011;61999;51.514;14.614;2023-07-02T00:10:25;1.73;;;1.47;;
15878;SDS011;61999;51.514;14.614;2023-07-02T00:12:53;1.40;;;1.30;;
15878;SDS011;61999;51.514;14.614;2023-07-02T00:15:20;1.90;;;1.47;;
15878;SDS011;61999;51.514;14.614;2023-07-02T00:17:48;1.50;;;1.40;;
15878;SDS011;61999;51.514;14.614;2023-07-02T00:20:16;1.33;;;1.27;;
15878;SDS011;61999;51.514;14.614;2023-07-02T00:22:46;3.47;;;1.70;;
15878;SDS011;61999;51.514;14.614;2023-07-02T00:25:15;5.43;;;1.80;;
15878;SDS011;61999;51.514;14.614;2023-07-02T00:27:43;1.60;;;1.50;;
15878;SDS011;61999;51.514;14.614;2023-07-02T00:30:11;1.83;;;1.50;;
15878;SDS011;61999;51.514;14.614;2023-07-02T00:32:40;1.70;;;1.60;;
15878;SDS011;61999;51.514;14.614;2023-07-02T00:35:08;1.60;;;1.50;;
15878;SDS011;61999;51.514;14.614;2023-07-02T00:37:36;2.40;;;1.50;;
15878;SDS011;61999;51.514;14.614;2023-07-02T00:40:04;2.20;;;1.70;;
15878;SDS011;61999;51.514;14.614;2023-07-02T00:42:36;1.97;;;1.67;;
15878;SDS011;61999;51.514;14.614;2023-07-02T00:45:04;1.60;;;1.50;;
15878;SDS011;61999;51.514;14.614;2023-07-02T00:47:34;3.40;;;2.03;;
15878;SDS011;61999;51.514;14.614;2023-07-02T00:50:03;1.97;;;1.87;;
15878;SDS011;61999;51.514;14.614;2023-07-02T00:52:35;1.70;;;1.50;;
15878;SDS011;61999;51.514;14.614;2023-07-02T00:55:04;1.70;;;1.60;;
15878;SDS011;61999;51.514;14.614;2023-07-02T00:57:33;2.07;;;1.50;;
15878;SDS011;61999;51.514;14.614;2023-07-02T01:00:02;1.80;;;1.60;;
15878;SDS011;61999;51.514;14.614;2023-07-02T01:02:33;2.50;;;1.63;;
15878;SDS011;61999;51.514;14.614;2023-07-02T01:05:01;1.70;;;1.60;;
15878;SDS011;61999;51.514;14.614;2023-07-02T01:07:29;2.23;;;1.80;;
15878;SDS011;61999;51.514;14.614;2023-07-02T01:09:57;2.13;;;1.97;;
15878;SDS011;61999;51.514;14.614;2023-07-02T01:12:25;1.80;;;1.70;;
15878;SDS011;61999;51.514;14.614;2023-07-02T01:14:56;1.83;;;1.73;;
15878;SDS011;61999;51.514;14.614;2023-07-02T01:17:29;2.43;;;1.77;;
15878;SDS011;61999;51.514;14.614;2023-07-02T01:20:07;2.37;;;1.90;;
15878;SDS011;61999;51.514;14.614;2023-07-02T01:22:38;1.60;;;1.40;;
15878;SDS011;61999;51.514;14.614;2023-07-02T01:25:07;1.80;;;1.70;;
15878;SDS011;61999;51.514;14.614;2023-07-02T01:27:35;1.90;;;1.80;;
15878;SDS011;61999;51.514;14.614;2023-07-02T01:30:05;2.40;;;1.93;;
15878;SDS011;61999;51.514;14.614;2023-07-02T01:32:36;2.20;;;1.87;;
15878;SDS011;61999;51.514;14.614;2023-07-02T01:35:05;1.97;;;1.60;;
15878;SDS011;61999;51.514;14.614;2023-07-02T01:37:35;2.17;;;1.93;;
15878;SDS011;61999;51.514;14.614;2023-07-02T01:40:05;2.00;;;1.90;;
15878;SDS011;61999;51.514;14.614;2023-07-02T01:42:35;3.70;;;1.77;;
15878;SDS011;61999;51.514;14.614;2023-07-02T01:45:03;2.17;;;1.60;;
15878;SDS011;61999;51.514;14.614;2023-07-02T01:47:32;4.97;;;2.10;;
15878;SDS011;61999;51.514;14.614;2023-07-02T01:50:00;3.23;;;1.80;;
15878;SDS011;61999;51.514;14.614;2023-07-02T01:52:32;2.10;;;1.67;;
15878;SDS011;61999;51.514;14.614;2023-07-02T01:55:00;2.20;;;1.60;;
15878;SDS011;61999;51.514;14.614;2023-07-02T01:57:29;2.13;;;1.93;;
15878;SDS011;61999;51.514;14.614;2023-07-02T01:59:57;2.67;;;1.97;;
15878;SDS011;61999;51.514;14.614;2023-07-02T02:02:25;2.07;;;1.87;;
15878;SDS011;61999;51.514;14.614;2023-07-02T02:04:53;2.70;;;1.63;;
15878;SDS011;61999;51.514;14.614;2023-07-02T02:07:22;2.20;;;1.67;;
15878;SDS011;61999;51.514;14.614;2023-07-02T02:09:53;1.93;;;1.60;;
15878;SDS011;61999;51.514;14.614;2023-07-02T02:12:21;1.80;;;1.70;;
15878;SDS011;61999;51.514;14.614;2023-07-02T02:14:49;1.80;;;1.70;;
15878;SDS011;61999;51.514;14.614;2023-07-02T02:17:17;1.53;;;1.43;;
15878;SDS011;61999;51.514;14.614;2023-07-02T02:19:45;2.20;;;1.60;;
15878;SDS011;61999;51.514;14.614;2023-07-02T02:22:13;2.17;;;1.90;;
15878;SDS011;61999;51.514;14.614;2023-07-02T02:24:41;3.87;;;2.00;;
15878;SDS011;61999;51.514;14.614;2023-07-02T02:27:11;1.90;;;1.73;;
15878;SDS011;61999;51.514;14.614;2023-07-02T02:29:38;3.23;;;1.87;;
15878;SDS011;61999;51.514;14.614;2023-07-02T02:32:06;2.07;;;1.90;;
15878;SDS011;61999;51.514;14.614;2023-07-02T02:34:34;2.20;;;2.00;;
15878;SDS011;61999;51.514;14.614;2023-07-02T02:37:03;1.90;;;1.80;;
15878;SDS011;61999;51.514;14.614;2023-07-02T02:39:31;2.10;;;1.90;;
15878;SDS011;61999;51.514;14.614;2023-07-02T02:41:59;1.83;;;1.73;;
15878;SDS011;61999;51.514;14.614;2023-07-02T02:44:28;2.00;;;1.80;;
15878;SDS011;61999;51.514;14.614;2023-07-02T02:46:58;3.30;;;2.00;;
15878;SDS011;61999;51.514;14.614;2023-07-02T02:49:26;2.17;;;1.70;;
15878;SDS011;61999;51.514;14.614;2023-07-02T02:51:54;1.83;;;1.73;;
15878;SDS011;61999;51.514;14.614;2023-07-02T02:54:23;2.10;;;1.90;;
15878;SDS011;61999;51.514;14.614;2023-07-02T02:56:51;2.67;;;1.80;;
15878;SDS011;61999;51.514;14.614;2023-07-02T02:59:18;1.90;;;1.70;;
15878;SDS011;61999;51.514;14.614;2023-07-02T03:01:48;1.90;;;1.80;;
15878;SDS011;61999;51.514;14.614;2023-07-02T03:04:17;4.30;;;1.73;;
15878;SDS011;61999;51.514;14.614;2023-07-02T03:06:51;2.23;;;2.03;;
15878;SDS011;61999;51.514;14.614;2023-07-02T03:09:19;2.30;;;2.20;;
15878;SDS011;61999;51.514;14.614;2023-07-02T03:11:47;2.40;;;1.73;;
15878;SDS011;61999;51.514;14.614;2023-07-02T03:14:16;2.33;;;2.13;;
15878;SDS011;61999;51.514;14.614;2023-07-02T03:16:44;3.10;;;2.00;;
15878;SDS011;61999;51.514;14.614;2023-07-02T03:19:14;1.90;;;1.73;;
15878;SDS011;61999;51.514;14.614;2023-07-02T03:21:42;3.07;;;2.10;;
15878;SDS011;61999;51.514;14.614;2023-07-02T03:24:10;2.10;;;1.90;;
15878;SDS011;61999;51.514;14.614;2023-07-02T03:26:39;2.00;;;1.90;;
15878;SDS011;61999;51.514;14.614;2023-07-02T03:29:07;2.17;;;2.00;;
15878;SDS011;61999;51.514;14.614;2023-07-02T03:31:36;2.10;;;2.00;;
15878;SDS011;61999;51.514;14.614;2023-07-02T03:34:06;2.20;;;2.00;;
15878;SDS011;61999;51.514;14.614;2023-07-02T03:36:37;2.47;;;2.20;;
15878;SDS011;61999;51.514;14.614;2023-07-02T03:39:05;2.20;;;2.00;;
15878;SDS011;61999;51.514;14.614;2023-07-02T03:41:35;1.80;;;1.70;;
15878;SDS011;61999;51.514;14.614;2023-07-02T03:44:03;3.23;;;1.90;;
15878;SDS011;61999;51.514;14.614;2023-07-02T03:46:31;2.03;;;1.93;;
15878;SDS011;61999;51.514;14.614;2023-07-02T03:48:59;2.37;;;2.10;;
15878;SDS011;61999;51.514;14.614;2023-07-02T03:51:29;3.00;;;2.07;;
15878;SDS011;61999;51.514;14.614;2023-07-02T03:53:59;2.17;;;1.80;;
15878;SDS011;61999;51.514;14.614;2023-07-02T03:56:26;2.47;;;2.30;;
15878;SDS011;61999;51.514;14.614;2023-07-02T03:58:54;2.00;;;1.90;;
15878;SDS011;61999;51.514;14.614;2023-07-02T04:01:23;2.20;;;2.00;;
15878;SDS011;61999;51.514;14.614;2023-07-02T04:03:52;2.23;;;2.13;;
15878;SDS011;61999;51.514;14.614;2023-07-02T04:06:21;2.60;;;2.30;;
15878;SDS011;61999;51.514;14.614;2023-07-02T04:08:49;2.27;;;2.07;;
15878;SDS011;61999;51.514;14.614;2023-07-02T04:11:19;2.10;;;1.90;;
15878;SDS011;61999;51.514;14.614;2023-07-02T04:13:47;2.30;;;2.10;;
15878;SDS011;61999;51.514;14.614;2023-07-02T04:16:14;2.23;;;1.93;;
15878;SDS011;61999;51.514;14.614;2023-07-02T04:18:42;2.40;;;2.20;;
15878;SDS011;61999;51.514;14.614;2023-07-02T04:21:10;2.67;;;2.47;;
15878;SDS011;61999;51.514;14.614;2023-07-02T04:23:38;2.80;;;2.60;;
15878;SDS011;61999;51.514;14.614;2023-07-02T04:26:06;2.50;;;2.30;;
15878;SDS011;61999;51.514;14.614;2023-07-02T04:28:36;2.57;;;2.40;;
15878;SDS011;61999;51.514;14.614;2023-07-02T04:31:04;2.30;;;2.20;;
15878;SDS011;61999;51.514;14.614;2023-07-02T04:33:32;2.73;;;2.53;;
15878;SDS011;61999;51.514;14.614;2023-07-02T04:36:02;2.50;;;2.30;;
15878;SDS011;61999;51.514;14.614;2023-07-02T04:38:30;3.27;;;2.40;;
15878;SDS011;61999;51.514;14.614;2023-07-02T04:40:58;2.60;;;2.40;;
15878;SDS011;61999;51.514;14.614;2023-07-02T04:43:27;3.10;;;2.43;;
15878;SDS011;61999;51.514;14.614;2023-07-02T04:45:57;3.43;;;2.70;;
15878;SDS011;61999;51.514;14.614;2023-07-02T04:48:26;2.20;;;2.10;;
15878;SDS011;61999;51.514;14.614;2023-07-02T04:50:54;2.37;;;2.13;;
15878;SDS011;61999;51.514;14.614;2023-07-02T04:53:22;2.30;;;2.10;;
15878;SDS011;61999;51.514;14.614;2023-07-02T04:55:50;2.30;;;2.10;;
15878;SDS011;61999;51.514;14.614;2023-07-02T04:58:18;2.30;;;2.20;;
15878;SDS011;61999;51.514;14.614;2023-07-02T05:00:46;2.67;;;2.47;;
15878;SDS011;61999;51.514;14.614;2023-07-02T05:03:15;2.47;;;2.30;;
15878;SDS011;61999;51.514;14.614;2023-07-02T05:05:43;2.47;;;2.27;;
15878;SDS011;61999;51.514;14.614;2023-07-02T05:08:11;3.10;;;2.90;;
15878;SDS011;61999;51.514;14.614;2023-07-02T05:10:39;2.83;;;2.30;;
15878;SDS011;61999;51.514;14.614;2023-07-02T05:13:07;2.67;;;2.47;;
15878;SDS011;61999;51.514;14.614;2023-07-02T05:15:35;2.60;;;2.40;;
15878;SDS011;61999;51.514;14.614;2023-07-02T05:18:03;2.63;;;2.47;;
15878;SDS011;61999;51.514;14.614;2023-07-02T05:20:34;2.80;;;2.47;;
15878;SDS011;61999;51.514;14.614;2023-07-02T05:23:02;3.13;;;2.20;;
15878;SDS011;61999;51.514;14.614;2023-07-02T05:25:30;2.53;;;2.40;;
15878;SDS011;61999;51.514;14.614;2023-07-02T05:27:58;3.13;;;2.30;;
15878;SDS011;61999;51.514;14.614;2023-07-02T05:30:26;2.70;;;2.50;;
15878;SDS011;61999;51.514;14.614;2023-07-02T05:32:54;2.57;;;2.37;;
15878;SDS011;61999;51.514;14.614;2023-07-02T05:35:22;2.80;;;2.50;;
15878;SDS011;61999;51.514;14.614;2023-07-02T05:37:52;2.87;;;2.63;;
15878;SDS011;61999;51.514;14.614;2023-07-02T05:40:20;3.10;;;2.50;;
15878;SDS011;61999;51.514;14.614;2023-07-02T05:42:48;2.73;;;2.53;;
15878;SDS011;61999;51.514;14.614;2023-07-02T05:45:15;2.93;;;2.63;;
15878;SDS011;61999;51.514;14.614;2023-07-02T05:47:43;3.03;;;2.77;;
15878;SDS011;61999;51.514;14.614;2023-07-02T05:50:12;3.90;;;2.60;;
15878;SDS011;61999;51.514;14.614;2023-07-02T05:52:40;2.60;;;2.40;;
15878;SDS011;61999;51.514;14.614;2023-07-02T05:55:10;3.00;;;2.80;;
15878;SDS011;61999;51.514;14.614;2023-07-02T05:57:38;2.30;;;2.20;;
15878;SDS011;61999;51.514;14.614;2023-07-02T06:00:07;2.20;;;2.00;;
15878;SDS011;61999;51.514;14.614;2023-07-02T06:02:36;2.40;;;2.20;;
15878;SDS011;61999;51.514;14.614;2023-07-02T06:05:04;2.80;;;2.50;;
15878;SDS011;61999;51.514;14.614;2023-07-02T06:07:33;3.00;;;2.60;;
15878;SDS011;61999;51.514;14.614;2023-07-02T06:10:01;3.10;;;2.80;;
15878;SDS011;61999;51.514;14.614;2023-07-02T06:12:31;2.73;;;2.53;;
15878;SDS011;61999;51.514;14.614;2023-07-02T06:14:59;2.90;;;2.60;;
15878;SDS011;61999;51.514;14.614;2023-07-02T06:17:27;2.73;;;2.53;;
15878;SDS011;61999;51.514;14.614;2023-07-02T06:19:57;3.33;;;2.90;;
15878;SDS011;61999;51.514;14.614;2023-07-02T06:22:25;2.87;;;2.67;;
15878;SDS011;61999;51.514;14.614;2023-07-02T06:24:53;3.80;;;3.07;;
15878;SDS011;61999;51.514;14.614;2023-07-02T06:27:21;3.23;;;3.00;;
15878;SDS011;61999;51.514;14.614;2023-07-02T06:29:50;3.57;;;2.70;;
15878;SDS011;61999;51.514;14.614;2023-07-02T06:32:18;2.83;;;2.63;;
15878;SDS011;61999;51.514;14.614;2023-07-02T06:34:46;2.90;;;2.70;;
15878;SDS011;61999;51.514;14.614;2023-07-02T06:37:14;2.97;;;2.77;;
15878;SDS011;61999;51.514;14.614;2023-07-02T06:39:42;2.97;;;2.63;;
15878;SDS011;61999;51.514;14.614;2023-07-02T06:42:10;2.60;;;2.40;;
15878;SDS011;61999;51.514;14.614;2023-07-02T06:44:38;2.87;;;2.40;;
15878;SDS011;61999;51.514;14.614;2023-07-02T06:47:09;5.20;;;2.73;;
15878;SDS011;61999;51.514;14.614;2023-07-02T06:49:37;2.87;;;2.60;;
15878;SDS011;61999;51.514;14.614;2023-07-02T06:52:05;2.70;;;2.47;;
15878;SDS011;61999;51.514;14.614;2023-07-02T06:54:33;4.43;;;2.83;;
15878;SDS011;61999;51.514;14.614;2023-07-02T06:57:01;2.30;;;2.20;;
15878;SDS011;61999;51.514;14.614;2023-07-02T06:59:29;2.43;;;2.30;;
15878;SDS011;61999;51.514;14.614;2023-07-02T07:01:57;3.27;;;2.10;;
15878;SDS011;61999;51.514;14.614;2023-07-02T07:04:27;3.07;;;2.77;;
15878;SDS011;61999;51.514;14.614;2023-07-02T07:06:55;2.37;;;2.23;;
15878;SDS011;61999;51.514;14.614;2023-07-02T07:09:23;2.70;;;2.50;;
15878;SDS011;61999;51.514;14.614;2023-07-02T07:11:52;2.60;;;2.40;;
15878;SDS011;61999;51.514;14.614;2023-07-02T07:14:19;2.50;;;2.30;;
15878;SDS011;61999;51.514;14.614;2023-07-02T07:16:48;2.90;;;2.40;;
15878;SDS011;61999;51.514;14.614;2023-07-02T07:19:16;2.53;;;2.13;;
15878;SDS011;61999;51.514;14.614;2023-07-02T07:21:45;2.00;;;1.90;;
15878;SDS011;61999;51.514;14.614;2023-07-02T07:24:13;3.80;;;3.10;;
15878;SDS011;61999;51.514;14.614;2023-07-02T07:26:41;2.30;;;2.20;;
15878;SDS011;61999;51.514;14.614;2023-07-02T07:29:09;2.70;;;2.10;;
15878;SDS011;61999;51.514;14.614;2023-07-02T07:31:37;2.50;;;2.10;;
15878;SDS011;61999;51.514;14.614;2023-07-02T07:34:05;2.57;;;2.00;;
15878;SDS011;61999;51.514;14.614;2023-07-02T07:36:33;2.30;;;2.10;;
15878;SDS011;61999;51.514;14.614;2023-07-02T07:39:02;2.83;;;2.40;;
15878;SDS011;61999;51.514;14.614;2023-07-02T07:41:30;2.27;;;2.17;;
15878;SDS011;61999;51.514;14.614;2023-07-02T07:43:58;2.23;;;2.07;;
15878;SDS011;61999;51.514;14.614;2023-07-02T07:46:27;2.57;;;2.37;;
15878;SDS011;61999;51.514;14.614;2023-07-02T07:48:55;2.80;;;2.20;;
15878;SDS011;61999;51.514;14.614;2023-07-02T07:51:23;2.50;;;2.30;;
15878;SDS011;61999;51.514;14.614;2023-07-02T07:53:51;1.90;;;1.80;;
15878;SDS011;61999;51.514;14.614;2023-07-02T07:56:21;2.97;;;2.10;;
15878;SDS011;61999;51.514;14.614;2023-07-02T07:58:49;2.10;;;1.93;;
15878;SDS011;61999;51.514;14.614;2023-07-02T08:01:17;2.13;;;1.80;;
15878;SDS011;61999;51.514;14.614;2023-07-02T08:03:45;2.97;;;2.33;;
15878;SDS011;61999;51.514;14.614;2023-07-02T08:06:12;3.00;;;2.07;;
15878;SDS011;61999;51.514;14.614;2023-07-02T08:08:40;2.10;;;1.90;;
15878;SDS011;61999;51.514;14.614;2023-07-02T08:11:08;1.70;;;1.50;;
15878;SDS011;61999;51.514;14.614;2023-07-02T08:13:38;2.30;;;2.10;;
15878;SDS011;61999;51.514;14.614;2023-07-02T08:16:06;1.70;;;1.60;;
15878;SDS011;61999;51.514;14.614;2023-07-02T08:18:35;2.30;;;2.10;;
15878;SDS011;61999;51.514;14.614;2023-07-02T08:21:03;2.50;;;2.30;;
15878;SDS011;61999;51.514;14.614;2023-07-02T08:23:32;2.07;;;1.93;;
15878;SDS011;61999;51.514;14.614;2023-07-02T08:26:00;2.73;;;2.53;;
15878;SDS011;61999;51.514;14.614;2023-07-02T08:28:29;2.37;;;2.17;;
15878;SDS011;61999;51.514;14.614;2023-07-02T08:30:58;2.20;;;2.00;;
15878;SDS011;61999;51.514;14.614;2023-07-02T08:33:26;1.80;;;1.70;;
15878;SDS011;61999;51.514;14.614;2023-07-02T08:35:54;1.43;;;1.40;;
15878;SDS011;61999;51.514;14.614;2023-07-02T08:38:23;2.57;;;1.90;;
15878;SDS011;61999;51.514;14.614;2023-07-02T08:40:51;1.90;;;1.70;;
15878;SDS011;61999;51.514;14.614;2023-07-02T08:43:19;1.67;;;1.57;;
15878;SDS011;61999;51.514;14.614;2023-07-02T08:45:48;1.90;;;1.80;;
15878;SDS011;61999;51.514;14.614;2023-07-02T08:48:18;1.63;;;1.53;;
15878;SDS011;61999;51.514;14.614;2023-07-02T08:50:48;2.50;;;2.00;;
15878;SDS011;61999;51.514;14.614;2023-07-02T08:53:17;4.97;;;2.20;;
15878;SDS011;61999;51.514;14.614;2023-07-02T08:55:45;2.20;;;2.00;;
15878;SDS011;61999;51.514;14.614;2023-07-02T08:58:14;2.47;;;1.87;;
15878;SDS011;61999;51.514;14.614;2023-07-02T09:00:53;2.37;;;2.03;;
15878;SDS011;61999;51.514;14.614;2023-07-02T09:03:34;2.17;;;1.80;;
15878;SDS011;61999;51.514;14.614;2023-07-02T09:06:04;5.03;;;2.20;;
15878;SDS011;61999;51.514;14.614;2023-07-02T09:08:33;4.60;;;1.70;;
15878;SDS011;61999;51.514;14.614;2023-07-02T09:11:05;2.80;;;1.90;;
15878;SDS011;61999;51.514;14.614;2023-07-02T09:13:41;3.63;;;1.97;;
15878;SDS011;61999;51.514;14.614;2023-07-02T09:16:24;2.10;;;1.93;;
15878;SDS011;61999;51.514;14.614;2023-07-02T09:19:00;3.13;;;1.90;;
15878;SDS011;61999;51.514;14.614;2023-07-02T09:21:40;3.47;;;1.90;;
15878;SDS011;61999;51.514;14.614;2023-07-02T09:24:11;2.30;;;2.00;;
15878;SDS011;61999;51.514;14.614;2023-07-02T09:26:42;1.80;;;1.70;;
15878;SDS011;61999;51.514;14.614;2023-07-02T09:29:11;4.03;;;2.00;;
15878;SDS011;61999;51.514;14.614;2023-07-02T09:31:43;2.33;;;1.80;;
15878;SDS011;61999;51.514;14.614;2023-07-02T09:34:29;2.30;;;1.97;;
15878;SDS011;61999;51.514;14.614;2023-07-02T09:36:58;2.47;;;1.77;;
15878;SDS011;61999;51.514;14.614;2023-07-02T09:39:28;1.73;;;1.57;;
15878;SDS011;61999;51.514;14.614;2023-07-02T09:42:02;1.57;;;1.43;;
15878;SDS011;61999;51.514;14.614;2023-07-02T09:44:34;1.83;;;1.73;;
15878;SDS011;61999;51.514;14.614;2023-07-02T09:47:03;5.37;;;1.90;;
15878;SDS011;61999;51.514;14.614;2023-07-02T09:49:35;2.43;;;1.80;;
15878;SDS011;61999;51.514;14.614;2023-07-02T09:52:06;2.03;;;1.80;;
15878;SDS011;61999;51.514;14.614;2023-07-02T09:54:36;2.30;;;1.57;;
15878;SDS011;61999;51.514;14.614;2023-07-02T09:57:05;1.57;;;1.47;;
15878;SDS011;61999;51.514;14.614;2023-07-02T09:59:34;1.80;;;1.70;;
15878;SDS011;61999;51.514;14.614;2023-07-02T10:02:02;1.83;;;1.73;;
15878;SDS011;61999;51.514;14.614;2023-07-02T10:04:40;1.77;;;1.67;;
15878;SDS011;61999;51.514;14.614;2023-07-02T10:07:10;1.80;;;1.70;;
15878;SDS011;61999;51.514;14.614;2023-07-02T10:09:39;2.57;;;1.70;;
15878;SDS011;61999;51.514;14.614;2023-07-02T10:12:18;2.70;;;1.67;;
15878;SDS011;61999;51.514;14.614;2023-07-02T10:14:48;3.33;;;1.60;;
15878;SDS011;61999;51.514;14.614;2023-07-02T10:17:25;1.77;;;1.50;;
15878;SDS011;61999;51.514;14.614;2023-07-02T10:19:58;2.43;;;1.70;;
15878;SDS011;61999;51.514;14.614;2023-07-02T10:22:41;1.87;;;1.33;;
15878;SDS011;61999;51.514;14.614;2023-07-02T10:25:10;2.47;;;1.80;;
15878;SDS011;61999;51.514;14.614;2023-07-02T10:27:38;1.60;;;1.50;;
15878;SDS011;61999;51.514;14.614;2023-07-02T10:30:08;2.00;;;1.70;;
15878;SDS011;61999;51.514;14.614;2023-07-02T10:32:38;2.43;;;1.60;;
15878;SDS011;61999;51.514;14.614;2023-07-02T10:35:16;7.20;;;2.30;;
15878;SDS011;61999;51.514;14.614;2023-07-02T10:37:45;2.93;;;1.67;;
15878;SDS011;61999;51.514;14.614;2023-07-02T10:40:13;1.90;;;1.73;;
15878;SDS011;61999;51.514;14.614;2023-07-02T10:42:45;3.37;;;1.73;;
15878;SDS011;61999;51.514;14.614;2023-07-02T10:45:15;2.03;;;1.87;;
15878;SDS011;61999;51.514;14.614;2023-07-02T10:47:44;2.80;;;1.90;;
15878;SDS011;61999;51.514;14.614;2023-07-02T10:50:13;2.67;;;1.90;;
15878;SDS011;61999;51.514;14.614;2023-07-02T10:52:47;1.80;;;1.70;;
15878;SDS011;61999;51.514;14.614;2023-07-02T10:55:17;2.20;;;1.77;;
15878;SDS011;61999;51.514;14.614;2023-07-02T10:57:46;1.57;;;1.47;;
15878;SDS011;61999;51.514;14.614;2023-07-02T11:00:17;2.40;;;2.20;;
15878;SDS011;61999;51.514;14.614;2023-07-02T11:02:46;2.60;;;1.87;;
15878;SDS011;61999;51.514;14.614;2023-07-02T11:05:14;6.40;;;2.50;;
15878;SDS011;61999;51.514;14.614;2023-07-02T11:07:44;2.33;;;2.13;;
15878;SDS011;61999;51.514;14.614;2023-07-02T11:10:17;2.37;;;2.17;;
15878;SDS011;61999;51.514;14.614;2023-07-02T11:12:46;4.30;;;2.37;;
15878;SDS011;61999;51.514;14.614;2023-07-02T11:15:14;2.00;;;1.90;;
15878;SDS011;61999;51.514;14.614;2023-07-02T11:17:44;2.53;;;2.33;;
15878;SDS011;61999;51.514;14.614;2023-07-02T11:20:13;2.37;;;2.10;;
15878;SDS011;61999;51.514;14.614;2023-07-02T11:22:43;3.77;;;2.30;;
15878;SDS011;61999;51.514;14.614;2023-07-02T11:25:13;3.23;;;2.33;;
15878;SDS011;61999;51.514;14.614;2023-07-02T11:27:43;2.03;;;1.83;;
15878;SDS011;61999;51.514;14.614;2023-07-02T11:30:12;2.83;;;1.93;;
15878;SDS011;61999;51.514;14.614;2023-07-02T11:32:47;2.30;;;2.10;;
15878;SDS011;61999;51.514;14.614;2023-07-02T11:35:17;2.73;;;2.40;;
15878;SDS011;61999;51.514;14.614;2023-07-02T11:37:47;3.10;;;2.80;;
15878;SDS011;61999;51.514;14.614;2023-07-02T11:40:17;3.13;;;2.83;;
15878;SDS011;61999;51.514;14.614;2023-07-02T11:42:46;3.93;;;2.67;;
15878;SDS011;61999;51.514;14.614;2023-07-02T11:45:14;3.40;;;2.40;;
15878;SDS011;61999;51.514;14.614;2023-07-02T11:47:42;2.80;;;2.50;;
15878;SDS011;61999;51.514;14.614;2023-07-02T11:50:10;3.40;;;2.50;;
15878;SDS011;61999;51.514;14.614;2023-07-02T11:52:47;4.77;;;3.30;;
15878;SDS011;61999;51.514;14.614;2023-07-02T11:55:15;5.07;;;3.50;;
15878;SDS011;61999;51.514;14.614;2023-07-02T11:57:43;4.87;;;3.20;;
15878;SDS011;61999;51.514;14.614;2023-07-02T12:00:14;4.50;;;3.73;;
15878;SDS011;61999;51.514;14.614;2023-07-02T12:02:42;5.10;;;3.63;;
15878;SDS011;61999;51.514;14.614;2023-07-02T12:05:11;3.90;;;3.27;;
15878;SDS011;61999;51.514;14.614;2023-07-02T12:07:39;5.73;;;4.27;;
15878;SDS011;61999;51.514;14.614;2023-07-02T12:10:08;5.03;;;3.73;;
15878;SDS011;61999;51.514;14.614;2023-07-02T12:12:37;4.73;;;3.60;;
15878;SDS011;61999;51.514;14.614;2023-07-02T12:15:05;5.97;;;3.97;;
15878;SDS011;61999;51.514;14.614;2023-07-02T12:17:34;5.80;;;3.77;;
15878;SDS011;61999;51.514;14.614;2023-07-02T12:20:02;3.70;;;3.33;;
15878;SDS011;61999;51.514;14.614;2023-07-02T12:22:31;5.33;;;3.67;;
15878;SDS011;61999;51.514;14.614;2023-07-02T12:24:59;5.57;;;3.27;;
15878;SDS011;61999;51.514;14.614;2023-07-02T12:27:28;3.43;;;2.70;;
15878;SDS011;61999;51.514;14.614;2023-07-02T12:29:56;4.00;;;2.90;;
15878;SDS011;61999;51.514;14.614;2023-07-02T12:32:24;2.90;;;2.40;;
15878;SDS011;61999;51.514;14.614;2023-07-02T12:34:52;3.40;;;3.10;;
15878;SDS011;61999;51.514;14.614;2023-07-02T12:37:20;3.75;;;3.42;;
15878;SDS011;61999;51.514;14.614;2023-07-02T12:39:48;2.88;;;2.33;;
15878;SDS011;61999;51.514;14.614;2023-07-02T12:42:17;2.78;;;2.58;;
15878;SDS011;61999;51.514;14.614;2023-07-02T12:44:47;2.80;;;2.60;;
15878;SDS011;61999;51.514;14.614;2023-07-02T12:47:15;4.90;;;3.22;;
15878;SDS011;61999;51.514;14.614;2023-07-02T12:49:42;3.35;;;3.05;;
15878;SDS011;61999;51.514;14.614;2023-07-02T12:52:11;3.00;;;2.67;;
15878;SDS011;61999;51.514;14.614;2023-07-02T12:54:38;3.00;;;2.50;;
15878;SDS011;61999;51.514;14.614;2023-07-02T12:57:06;3.47;;;2.58;;
15878;SDS011;61999;51.514;14.614;2023-07-02T12:59:34;7.22;;;3.05;;
15878;SDS011;61999;51.514;14.614;2023-07-02T13:02:04;3.45;;;2.92;;
15878;SDS011;61999;51.514;14.614;2023-07-02T13:04:33;2.87;;;2.43;;
15878;SDS011;61999;51.514;14.614;2023-07-02T13:07:01;3.87;;;3.20;;
15878;SDS011;61999;51.514;14.614;2023-07-02T13:09:30;3.23;;;2.93;;
15878;SDS011;61999;51.514;14.614;2023-07-02T13:11:58;4.70;;;2.53;;
15878;SDS011;61999;51.514;14.614;2023-07-02T13:14:26;3.20;;;2.70;;
15878;SDS011;61999;51.514;14.614;2023-07-02T13:16:54;3.10;;;2.20;;
15878;SDS011;61999;51.514;14.614;2023-07-02T13:19:23;3.37;;;2.90;;
15878;SDS011;61999;51.514;14.614;2023-07-02T13:21:51;3.23;;;2.90;;
15878;SDS011;61999;51.514;14.614;2023-07-02T13:24:19;3.27;;;2.87;;
15878;SDS011;61999;51.514;14.614;2023-07-02T13:26:47;3.90;;;3.00;;
15878;SDS011;61999;51.514;14.614;2023-07-02T13:29:15;3.93;;;2.90;;
15878;SDS011;61999;51.514;14.614;2023-07-02T13:31:43;3.87;;;2.70;;
15878;SDS011;61999;51.514;14.614;2023-07-02T13:34:11;3.97;;;2.60;;
15878;SDS011;61999;51.514;14.614;2023-07-02T13:36:40;3.43;;;3.13;;
15878;SDS011;61999;51.514;14.614;2023-07-02T13:39:08;3.93;;;2.70;;
15878;SDS011;61999;51.514;14.614;2023-07-02T13:41:36;3.53;;;3.13;;
15878;SDS011;61999;51.514;14.614;2023-07-02T13:44:04;4.47;;;2.60;;
15878;SDS011;61999;51.514;14.614;2023-07-02T13:46:32;4.00;;;3.60;;
15878;SDS011;61999;51.514;14.614;2023-07-02T13:49:01;4.57;;;3.43;;
15878;SDS011;61999;51.514;14.614;2023-07-02T13:51:29;4.97;;;3.33;;
15878;SDS011;61999;51.514;14.614;2023-07-02T13:53:58;7.07;;;4.07;;
15878;SDS011;61999;51.514;14.614;2023-07-02T13:56:26;4.53;;;3.30;;
15878;SDS011;61999;51.514;14.614;2023-07-02T13:59:05;5.17;;;3.97;;
15878;SDS011;61999;51.514;14.614;2023-07-02T14:01:33;3.67;;;3.20;;
15878;SDS011;61999;51.514;14.614;2023-07-02T14:04:01;4.27;;;3.47;;
15878;SDS011;61999;51.514;14.614;2023-07-02T14:06:30;4.47;;;3.60;;
15878;SDS011;61999;51.514;14.614;2023-07-02T14:08:59;3.53;;;3.10;;
15878;SDS011;61999;51.514;14.614;2023-07-02T14:11:27;3.80;;;3.40;;
15878;SDS011;61999;51.514;14.614;2023-07-02T14:13:56;4.60;;;3.83;;
15878;SDS011;61999;51.514;14.614;2023-07-02T14:16:25;3.40;;;2.97;;
15878;SDS011;61999;51.514;14.614;2023-07-02T14:18:53;3.80;;;3.37;;
15878;SDS011;61999;51.514;14.614;2023-07-02T14:21:21;5.83;;;3.83;;
15878;SDS011;61999;51.514;14.614;2023-07-02T14:23:49;6.03;;;4.05;;
15878;SDS011;61999;51.514;14.614;2023-07-02T14:26:18;3.95;;;3.65;;
15878;SDS011;61999;51.514;14.614;2023-07-02T14:28:46;4.32;;;3.63;;
15878;SDS011;61999;51.514;14.614;2023-07-02T14:31:14;12.38;;;4.60;;
15878;SDS011;61999;51.514;14.614;2023-07-02T14:33:43;5.55;;;4.15;;
15878;SDS011;61999;51.514;14.614;2023-07-02T14:36:11;5.32;;;4.15;;
15878;SDS011;61999;51.514;14.614;2023-07-02T14:38:39;6.88;;;4.40;;
15878;SDS011;61999;51.514;14.614;2023-07-02T14:41:07;4.80;;;4.07;;
15878;SDS011;61999;51.514;14.614;2023-07-02T14:43:35;7.35;;;5.10;;